»·PEaware :: N9397W CYBW-KGTF

N9397W :: CYBW-KGTF

FLIGHT INFORMATION

Flight Status: Arrived
Operator: Privately registered:
United States
More flights under this callsign
Pilot: Dean C. (27429)
Aircraft: MOONEY M-20 201 202 205 220 ATS MSE
(M20P)
More flights by this aircraft type
Origin: CYBW Springbank
Canada
Destination: KGTF Great Falls Intl
United States
More flights between these airports :: More routes between these airports
Route: +GADKI T727 VOBUK V21 GTF
File this flight plan on PilotEdge
Remarks: N / A
Altitude:
(Current/Filed)
9,000ft
Speed:
(Current/Filed)
180kts
Departed: 26-Apr-20 03:12 PM
Arrived: 26-Apr-20 04:50 PM
Distance/Time
Traveled:
247nm/1:38
Distance/Time
To Go:
Arrived

Flight Plot

Page will automatically refresh every two minutes.


Map Options




Map Legend


Flown Route
Filed Route
Departure Airport
Arrival Airport
Navaid (VOR, NDB)
Fix

Horizontal Profiles

Position Reports

Time Latitude Longitude Heading Altitude Ground
Speed
26-Apr-20 15:03 51.103111 -114.375286 90 3939ft 0kts
26-Apr-20 15:04 51.103111 -114.375286 90 3939ft 0kts
26-Apr-20 15:05 51.103111 -114.375286 90 3939ft 0kts
26-Apr-20 15:06 51.103111 -114.375286 90 3939ft 0kts
26-Apr-20 15:07 51.103111 -114.375286 90 3939ft 0kts
26-Apr-20 15:08 51.103453 -114.370776 90 3939ft 21kts
26-Apr-20 15:09 51.104007 -114.364004 350 3939ft 0kts
26-Apr-20 15:10 51.104582 -114.364121 349 3939ft 15kts
26-Apr-20 15:11 51.104805 -114.369254 270 3939ft 63kts
26-Apr-20 15:12 51.103904 -114.406962 268 4515ft 99kts
26-Apr-20 15:13 51.103817 -114.450747 271 5500ft 100kts
26-Apr-20 15:14 51.095127 -114.490512 203 6494ft 117kts
26-Apr-20 15:15 51.068586 -114.456799 135 7503ft 131kts
26-Apr-20 15:16 51.045434 -114.412768 134 8477ft 128kts
26-Apr-20 15:17 51.021570 -114.367133 133 9038ft 157kts
26-Apr-20 15:18 50.990074 -114.307022 132 9028ft 190kts
26-Apr-20 15:19 50.955326 -114.240725 132 9028ft 198kts
26-Apr-20 15:20 50.919809 -114.173129 132 9024ft 201kts
26-Apr-20 15:21 50.883262 -114.107610 150 9016ft 200kts
26-Apr-20 15:22 50.834220 -114.067014 156 9013ft 199kts
26-Apr-20 15:23 50.785540 -114.024946 154 9007ft 199kts
26-Apr-20 15:24 50.736870 -113.982774 155 9007ft 200kts
26-Apr-20 15:25 50.687925 -113.940455 155 9011ft 200kts
26-Apr-20 15:26 50.638877 -113.898361 155 9009ft 201kts
26-Apr-20 15:27 50.589793 -113.856188 154 9006ft 201kts
26-Apr-20 15:28 50.541169 -113.812260 154 9010ft 202kts
26-Apr-20 15:29 50.493081 -113.768380 154 9008ft 199kts
26-Apr-20 15:30 50.444737 -113.724437 153 9010ft 202kts
26-Apr-20 15:31 50.396314 -113.680540 153 9008ft 201kts
26-Apr-20 15:32 50.347954 -113.636803 154 9025ft 200kts
26-Apr-20 15:33 50.299779 -113.593321 154 9041ft 200kts
26-Apr-20 15:34 50.251696 -113.550050 156 9059ft 199kts
26-Apr-20 15:35 50.203601 -113.506862 155 9066ft 199kts
26-Apr-20 15:36 50.158777 -113.455306 138 9054ft 204kts
26-Apr-20 15:37 50.119053 -113.391991 139 9050ft 204kts
26-Apr-20 15:38 50.078149 -113.329751 140 9037ft 205kts
26-Apr-20 15:39 50.037417 -113.268292 140 9027ft 204kts
26-Apr-20 15:40 49.996638 -113.206937 141 9026ft 203kts
26-Apr-20 15:41 49.955928 -113.145846 141 9026ft 203kts
26-Apr-20 15:42 49.915087 -113.084708 141 9025ft 204kts
26-Apr-20 15:43 49.874182 -113.023626 141 9025ft 203kts
26-Apr-20 15:44 49.833391 -112.962859 141 9027ft 202kts
26-Apr-20 15:45 49.792783 -112.902518 141 9027ft 201kts
26-Apr-20 15:46 49.752463 -112.842755 141 9028ft 200kts
26-Apr-20 15:47 49.712129 -112.783121 141 9027ft 200kts
26-Apr-20 15:48 49.671864 -112.723754 141 9026ft 199kts
26-Apr-20 15:49 49.630621 -112.667656 165 9028ft 191kts
26-Apr-20 15:50 49.579513 -112.652657 175 9026ft 187kts
26-Apr-20 15:51 49.528510 -112.637444 175 9029ft 187kts
26-Apr-20 15:52 49.477336 -112.622441 176 9029ft 187kts
26-Apr-20 15:53 49.426039 -112.607486 175 9028ft 187kts
26-Apr-20 15:54 49.375008 -112.592637 175 9030ft 187kts
26-Apr-20 15:55 49.323719 -112.577739 176 9029ft 188kts
26-Apr-20 15:56 49.272386 -112.562821 176 9029ft 187kts
26-Apr-20 15:57 49.221297 -112.548054 175 9043ft 186kts
26-Apr-20 15:58 49.170353 -112.533339 175 9056ft 186kts
26-Apr-20 15:59 49.119620 -112.518750 175 9073ft 185kts
26-Apr-20 16:00 49.068927 -112.504168 175 9076ft 185kts
26-Apr-20 16:01 49.018204 -112.489633 175 9076ft 185kts
26-Apr-20 16:02 48.967694 -112.472191 169 9007ft 187kts
26-Apr-20 16:03 48.917929 -112.450717 170 9014ft 185kts
26-Apr-20 16:04 48.867972 -112.433759 175 9006ft 182kts
26-Apr-20 16:05 48.818301 -112.419475 175 9007ft 182kts
26-Apr-20 16:06 48.768500 -112.404619 175 9008ft 182kts
26-Apr-20 16:07 48.718800 -112.389718 175 9012ft 182kts
26-Apr-20 16:08 48.668929 -112.374848 174 9017ft 183kts
26-Apr-20 16:09 48.619006 -112.359934 174 9009ft 183kts
26-Apr-20 16:10 48.569023 -112.344949 171 9009ft 184kts
26-Apr-20 16:11 48.522902 -112.307772 157 9006ft 188kts
26-Apr-20 16:12 48.477276 -112.268924 156 9011ft 188kts
26-Apr-20 16:13 48.431417 -112.229865 157 9010ft 189kts
26-Apr-20 16:14 48.385790 -112.191072 157 9007ft 188kts
26-Apr-20 16:15 48.340228 -112.152416 157 9009ft 188kts
26-Apr-20 16:16 48.294608 -112.113816 156 9010ft 188kts
26-Apr-20 16:17 48.248873 -112.075155 156 9012ft 189kts
26-Apr-20 16:18 48.202993 -112.036465 156 9017ft 190kts
26-Apr-20 16:19 48.156765 -111.997552 156 9020ft 191kts
26-Apr-20 16:20 48.110143 -111.958354 154 9018ft 193kts
26-Apr-20 16:21 48.071993 -111.900360 135 9021ft 197kts
26-Apr-20 16:22 48.035228 -111.839322 136 9019ft 197kts
26-Apr-20 16:23 47.997996 -111.779137 137 9016ft 197kts
26-Apr-20 16:24 47.960694 -111.719100 137 9014ft 198kts
26-Apr-20 16:25 47.923119 -111.658501 137 9012ft 199kts
26-Apr-20 16:26 47.885369 -111.597922 138 9011ft 200kts
26-Apr-20 16:27 47.847327 -111.537107 137 9011ft 200kts
26-Apr-20 16:28 47.809355 -111.476550 137 9009ft 200kts
26-Apr-20 16:29 47.770398 -111.414705 137 8540ft 212kts
26-Apr-20 16:30 47.729520 -111.349866 138 7857ft 217kts
26-Apr-20 16:31 47.690182 -111.287518 137 7140ft 210kts
26-Apr-20 16:33 47.651690 -111.226547 138 7013ft 193kts
26-Apr-20 16:34 47.615357 -111.169274 138 7021ft 188kts
26-Apr-20 16:35 47.599489 -111.104235 38 6532ft 170kts
26-Apr-20 16:36 47.634804 -111.063681 32 6223ft 155kts
26-Apr-20 16:37 47.667557 -111.024864 31 6228ft 148kts
26-Apr-20 16:38 47.699211 -111.018638 297 6227ft 116kts
26-Apr-20 16:39 47.688058 -111.059188 231 6229ft 120kts
26-Apr-20 16:40 47.664638 -111.094808 231 6228ft 120kts
26-Apr-20 16:41 47.640742 -111.130271 231 6227ft 121kts
26-Apr-20 16:42 47.616913 -111.165539 230 6221ft 121kts
26-Apr-20 16:43 47.593104 -111.200655 231 6220ft 121kts
26-Apr-20 16:44 47.570329 -111.234527 231 6020ft 112kts
26-Apr-20 16:45 47.550180 -111.264369 234 5387ft 90kts
26-Apr-20 16:46 47.532835 -111.290085 234 4948ft 88kts
26-Apr-20 16:47 47.515934 -111.315038 234 4450ft 79kts
26-Apr-20 16:47 47.503748 -111.333010 237 4093ft 66kts
26-Apr-20 16:49 47.490248 -111.352719 235 3660ft 54kts
26-Apr-20 16:50 47.485462 -111.358006 91 3662ft 0kts

Navigation Log

Ident Type
Flight plan parsing failed, navigation log unavailable